Time;durP1;ratioP1;P1;durP2;ratioP2;P2;SDS_P1;SDS_P2;PMS_P1;PMS_P2;Temp;Humidity;BMP_temperature;BMP_pressure;BME280_temperature;BME280_humidity;BME280_pressure;Samples;Min_cycle;Max_cycle;Signal;HPM_P1;HPM_P2
2023/04/14 03:02:44;;;;;;;0.65;0.60;;;17.70;52.10;;;;;;4973512;28;46555;-52
2023/04/14 03:05:09;;;;;;;1.25;0.73;;;17.70;52.10;;;;;;4972482;28;45649;-55
2023/04/14 03:07:35;;;;;;;1.45;0.90;;;17.70;52.10;;;;;;4979285;28;45196;-55
2023/04/14 03:10:01;;;;;;;1.73;0.88;;;17.70;52.00;;;;;;4999190;28;46018;-55
2023/04/14 03:12:27;;;;;;;1.40;0.90;;;17.70;52.00;;;;;;4962478;28;45420;-56
2023/04/14 03:14:52;;;;;;;1.02;0.90;;;17.70;52.00;;;;;;4987664;28;45864;-56
2023/04/14 03:17:19;;;;;;;1.60;0.90;;;17.70;52.00;;;;;;4982121;28;44943;-55
2023/04/14 03:19:47;;;;;;;1.08;0.80;;;17.70;52.00;;;;;;4985665;28;45112;-56
2023/04/14 03:22:13;;;;;;;1.23;0.70;;;17.70;52.00;;;;;;4970253;28;46030;-54
2023/04/14 03:24:38;;;;;;;1.10;0.70;;;17.70;52.10;;;;;;4972214;28;46815;-55
2023/04/14 03:27:07;;;;;;;1.30;0.98;;;17.70;52.00;;;;;;4956756;28;45207;-56
2023/04/14 03:29:39;;;;;;;1.23;0.82;;;17.70;52.00;;;;;;4989667;28;45327;-55
2023/04/14 03:32:05;;;;;;;1.27;0.88;;;17.70;52.10;;;;;;4982261;28;45310;-55
2023/04/14 03:34:32;;;;;;;1.20;0.90;;;17.70;52.10;;;;;;4994051;28;45900;-59
2023/04/14 03:36:58;;;;;;;0.98;0.85;;;17.60;52.10;;;;;;4973710;28;46187;-56
2023/04/14 03:39:27;;;;;;;1.70;1.20;;;17.60;52.00;;;;;;4976365;28;45265;-56
2023/04/14 03:41:57;;;;;;;2.47;0.90;;;17.60;52.00;;;;;;4987658;28;44783;-55
2023/04/14 03:44:24;;;;;;;1.75;1.00;;;17.60;52.10;;;;;;4994443;28;45947;-56
2023/04/14 03:46:49;;;;;;;1.15;0.85;;;17.60;52.10;;;;;;4967352;28;45555;-56
2023/04/14 03:49:15;;;;;;;0.75;0.70;;;17.60;52.10;;;;;;4987139;28;44669;-56
2023/04/14 03:51:42;;;;;;;1.15;0.80;;;17.60;52.10;;;;;;4982900;28;45037;-54
2023/04/14 03:54:08;;;;;;;1.17;1.02;;;17.60;52.10;;;;;;4994566;28;46065;-55
2023/04/14 03:56:37;;;;;;;0.82;0.60;;;17.60;52.10;;;;;;4982331;28;45159;-57
2023/04/14 03:59:03;;;;;;;1.30;0.90;;;17.60;52.10;;;;;;4992759;28;45214;-53
2023/04/14 04:01:28;;;;;;;1.48;1.13;;;17.50;52.00;;;;;;4978252;28;45146;-58
2023/04/14 04:03:54;;;;;;;1.20;0.85;;;17.60;52.20;;;;;;4986708;28;46128;-54
2023/04/14 04:06:19;;;;;;;1.42;0.95;;;17.50;52.10;;;;;;4990863;28;45271;-57
2023/04/14 04:08:46;;;;;;;0.88;0.80;;;17.50;52.00;;;;;;4977182;28;45399;-56
2023/04/14 04:11:12;;;;;;;1.55;1.00;;;17.50;52.00;;;;;;4987263;28;45760;-53
2023/04/14 04:13:37;;;;;;;1.40;0.95;;;17.50;52.10;;;;;;4991981;28;45927;-54
2023/04/14 04:16:04;;;;;;;1.10;0.93;;;17.50;52.10;;;;;;4969782;28;45561;-54
2023/04/14 04:18:29;;;;;;;1.80;1.00;;;17.50;52.10;;;;;;4991932;28;45327;-55
2023/04/14 04:20:55;;;;;;;0.70;0.60;;;17.50;52.10;;;;;;4982288;28;45552;-53
2023/04/14 04:23:21;;;;;;;1.77;1.02;;;17.50;52.10;;;;;;4976748;28;46033;-55
2023/04/14 04:25:46;;;;;;;1.05;0.80;;;17.50;52.20;;;;;;4974152;28;45401;-56
2023/04/14 04:28:12;;;;;;;0.80;0.80;;;17.50;52.10;;;;;;4980524;28;45404;-55
2023/04/14 04:30:39;;;;;;;1.38;1.00;;;17.50;52.10;;;;;;4978001;28;44768;-54
2023/04/14 04:33:05;;;;;;;1.80;0.90;;;17.50;52.10;;;;;;4992592;28;45990;-55
2023/04/14 04:35:31;;;;;;;1.33;0.90;;;17.50;52.20;;;;;;4974262;28;45640;-54
2023/04/14 04:37:57;;;;;;;1.67;0.95;;;17.50;52.10;;;;;;4987575;28;45530;-56
2023/04/14 04:40:22;;;;;;;1.58;0.88;;;17.50;52.10;;;;;;4985152;28;45534;-55
2023/04/14 04:42:48;;;;;;;1.15;0.75;;;17.50;52.10;;;;;;4988053;28;45955;-55
2023/04/14 04:45:16;;;;;;;1.73;0.80;;;17.50;52.10;;;;;;4989165;28;45347;-62
2023/04/14 04:47:41;;;;;;;1.00;0.80;;;17.50;52.10;;;;;;4982298;28;47299;-52
2023/04/14 04:50:07;;;;;;;1.33;0.90;;;17.50;52.10;;;;;;4992308;28;45978;-56
2023/04/14 04:52:33;;;;;;;1.50;1.10;;;17.50;52.10;;;;;;4973422;28;46012;-55
2023/04/14 04:54:58;;;;;;;1.30;1.00;;;17.50;52.00;;;;;;4993428;28;45698;-55
2023/04/14 04:57:24;;;;;;;1.20;0.98;;;17.50;52.10;;;;;;4993437;28;45344;-53
2023/04/14 04:59:49;;;;;;;1.48;0.90;;;17.50;52.00;;;;;;4991475;28;45871;-52
2023/04/14 05:02:15;;;;;;;0.82;0.75;;;17.40;52.10;;;;;;4981762;28;45103;-52
2023/04/14 05:04:41;;;;;;;1.10;0.90;;;17.40;52.10;;;;;;4992176;28;45452;-55
2023/04/14 05:07:07;;;;;;;1.02;0.80;;;17.40;52.00;;;;;;4987955;28;45561;-54
2023/04/14 05:09:33;;;;;;;1.02;0.80;;;17.40;52.10;;;;;;4993025;28;45299;-53
2023/04/14 05:11:58;;;;;;;0.70;0.70;;;17.40;52.00;;;;;;4988551;28;46068;-53
2023/04/14 05:14:24;;;;;;;1.33;0.95;;;17.40;52.00;;;;;;4994252;28;44946;-54
2023/04/14 05:16:49;;;;;;;1.05;0.85;;;17.40;52.00;;;;;;4981511;28;45219;-53
2023/04/14 05:19:15;;;;;;;1.15;1.00;;;17.40;52.10;;;;;;4992891;28;45619;-55
2023/04/14 05:21:41;;;;;;;1.08;0.70;;;17.40;52.10;;;;;;4993004;28;46623;-55
2023/04/14 05:24:07;;;;;;;0.90;0.80;;;17.40;52.10;;;;;;4994547;28;45199;-57
2023/04/14 05:26:33;;;;;;;1.27;0.70;;;17.40;52.10;;;;;;4983495;28;45521;-56
2023/04/14 05:28:59;;;;;;;2.22;0.77;;;17.40;52.10;;;;;;4995048;28;45560;-55
2023/04/14 05:31:24;;;;;;;1.42;0.88;;;17.40;52.10;;;;;;4984243;28;46081;-53
2023/04/14 05:33:50;;;;;;;1.35;0.95;;;17.40;52.10;;;;;;4989196;28;45342;-56
2023/04/14 05:36:16;;;;;;;1.35;1.00;;;17.40;52.10;;;;;;4988273;28;45093;-56
2023/04/14 05:38:41;;;;;;;0.90;0.70;;;17.40;52.10;;;;;;4992774;28;45121;-54
2023/04/14 05:41:07;;;;;;;0.98;0.73;;;17.40;52.10;;;;;;5008992;22;48095;-53
2023/04/14 05:43:33;;;;;;;1.40;1.00;;;17.40;52.10;;;;;;4999766;28;45484;-60
2023/04/14 05:46:00;;;;;;;1.15;0.80;;;17.40;52.10;;;;;;5000781;28;45737;-60
2023/04/14 05:48:28;;;;;;;1.40;1.00;;;17.30;52.00;;;;;;4989446;28;45313;-53
2023/04/14 05:50:54;;;;;;;1.75;0.93;;;17.40;52.10;;;;;;4998316;28;46019;-55
2023/04/14 05:53:19;;;;;;;1.70;0.90;;;17.40;52.10;;;;;;5003110;28;45466;-54
2023/04/14 05:55:46;;;;;;;0.90;0.70;;;17.30;52.00;;;;;;4997372;28;45606;-56
2023/04/14 05:58:12;;;;;;;5.18;1.33;;;17.40;52.10;;;;;;5009458;28;45401;-60
2023/04/14 06:00:37;;;;;;;3.03;2.30;;;17.30;51.10;;;;;;4994387;28;45865;-60
2023/04/14 06:03:03;;;;;;;6.32;3.08;;;17.30;50.50;;;;;;5004574;28;45236;-59
2023/04/14 06:05:28;;;;;;;5.80;2.70;;;17.10;50.60;;;;;;5000998;28;45224;-58
2023/04/14 06:08:02;;;;;;;3.22;2.50;;;17.00;50.40;;;;;;5078351;27;44714;-58
2023/04/14 06:10:29;;;;;;;2.22;2.00;;;17.00;50.60;;;;;;5050696;28;45015;-62
2023/04/14 06:12:55;;;;;;;1.95;1.77;;;17.10;50.90;;;;;;5041513;28;46657;-58
2023/04/14 06:15:20;;;;;;;2.75;1.80;;;17.30;50.60;;;;;;5040342;28;45125;-61
2023/04/14 06:17:46;;;;;;;1.95;1.50;;;17.60;50.30;;;;;;5010469;28;45645;-59
2023/04/14 06:20:13;;;;;;;2.70;1.35;;;17.70;50.00;;;;;;5037724;28;45627;-60
2023/04/14 06:22:39;;;;;;;4.30;1.55;;;17.90;49.80;;;;;;5043457;28;44696;-60
2023/04/14 06:25:05;;;;;;;0.80;0.80;;;18.20;49.50;;;;;;5043108;28;45805;-66
2023/04/14 06:27:31;;;;;;;1.33;1.15;;;18.40;49.30;;;;;;5034260;28;45316;-56
2023/04/14 06:29:57;;;;;;;1.75;1.30;;;18.50;49.10;;;;;;5041260;28;45913;-61
2023/04/14 06:32:22;;;;;;;0.93;0.80;;;18.70;49.50;;;;;;5033878;28;45511;-59
2023/04/14 06:34:48;;;;;;;1.70;1.17;;;18.90;48.80;;;;;;5042420;28;45500;-60
2023/04/14 06:37:15;;;;;;;1.02;0.73;;;19.00;48.70;;;;;;5033907;28;46450;-62
2023/04/14 06:39:41;;;;;;;2.30;0.90;;;19.20;48.60;;;;;;5035471;28;45395;-61
2023/04/14 06:42:06;;;;;;;1.75;0.82;;;19.30;48.50;;;;;;5031848;28;45311;-61
2023/04/14 06:44:32;;;;;;;1.30;1.00;;;19.40;48.40;;;;;;5040554;28;45395;-60
2023/04/14 06:46:58;;;;;;;1.42;0.90;;;19.60;48.30;;;;;;5026531;28;46976;-59
2023/04/14 06:49:23;;;;;;;2.28;0.90;;;19.70;48.10;;;;;;5040638;28;45390;-60
2023/04/14 06:51:49;;;;;;;1.08;0.80;;;19.80;48.00;;;;;;5031780;28;45261;-62
2023/04/14 06:54:15;;;;;;;0.90;0.60;;;20.00;48.00;;;;;;5036081;28;45609;-60
2023/04/14 06:56:40;;;;;;;1.27;0.75;;;20.10;48.00;;;;;;5035028;28;46157;-60
2023/04/14 06:59:06;;;;;;;1.40;0.70;;;20.10;47.90;;;;;;5038590;28;45395;-61
2023/04/14 07:01:31;;;;;;;1.50;0.70;;;20.20;47.90;;;;;;5030440;28;45546;-60
2023/04/14 07:03:57;;;;;;;1.23;0.85;;;20.30;47.90;;;;;;5040810;28;44719;-61
2023/04/14 07:06:23;;;;;;;3.55;1.10;;;20.30;47.80;;;;;;5041182;27;44960;-60
2023/04/14 07:08:49;;;;;;;1.40;1.00;;;20.40;47.80;;;;;;5062174;27;45228;-59
2023/04/14 07:11:14;;;;;;;1.02;0.70;;;20.50;47.70;;;;;;5054073;27;45152;-60
2023/04/14 07:13:40;;;;;;;1.35;0.68;;;20.50;47.70;;;;;;5044624;28;45737;-60
2023/04/14 07:16:06;;;;;;;1.42;0.93;;;20.60;47.60;;;;;;5052811;27;45509;-60
2023/04/14 07:18:32;;;;;;;0.82;0.68;;;20.70;47.60;;;;;;5035297;28;44873;-59
2023/04/14 07:20:58;;;;;;;2.95;0.80;;;20.80;47.60;;;;;;5021051;28;45877;-61
2023/04/14 07:23:24;;;;;;;1.45;0.95;;;20.80;47.50;;;;;;5027554;28;44955;-59
2023/04/14 07:25:51;;;;;;;1.33;0.60;;;20.90;47.50;;;;;;5035979;28;46317;-60
2023/04/14 07:28:20;;;;;;;1.02;0.73;;;21.00;47.50;;;;;;5033179;28;45580;-60
2023/04/14 07:30:47;;;;;;;0.60;0.52;;;21.10;47.40;;;;;;5032252;28;44998;-62
2023/04/14 07:33:12;;;;;;;1.13;0.68;;;21.10;47.30;;;;;;5030242;28;44930;-59
2023/04/14 07:35:38;;;;;;;1.15;0.80;;;21.20;47.90;;;;;;5044556;22;46130;-58
2023/04/14 07:38:04;;;;;;;0.98;0.63;;;21.20;47.20;;;;;;5019092;28;45250;-61
2023/04/14 07:40:29;;;;;;;1.85;0.73;;;21.30;47.10;;;;;;5023482;28;44653;-59
2023/04/14 07:42:56;;;;;;;1.98;0.75;;;21.40;47.20;;;;;;5015495;28;45243;-59
2023/04/14 07:45:22;;;;;;;0.68;0.60;;;21.50;47.00;;;;;;5004947;28;45484;-62
2023/04/14 07:47:47;;;;;;;1.20;0.68;;;21.50;47.00;;;;;;5010863;28;45109;-60
2023/04/14 07:50:16;;;;;;;0.98;0.73;;;21.60;47.00;;;;;;5006060;28;45803;-61
2023/04/14 07:52:42;;;;;;;0.80;0.60;;;21.70;46.90;;;;;;5013658;28;45173;-58
2023/04/14 07:55:10;;;;;;;0.77;0.60;;;21.70;46.90;;;;;;5010956;28;45977;-62
2023/04/14 07:57:35;;;;;;;0.80;0.50;;;21.80;46.80;;;;;;5009521;28;45355;-59
2023/04/14 08:00:01;;;;;;;0.75;0.60;;;21.80;46.80;;;;;;5013051;28;45465;-58
2023/04/14 08:02:26;;;;;;;0.88;0.50;;;21.90;46.80;;;;;;5000593;28;45719;-58
2023/04/14 08:04:52;;;;;;;0.40;0.40;;;22.00;46.70;;;;;;5008127;28;47184;-59
2023/04/14 08:07:18;;;;;;;0.80;0.75;;;22.10;46.70;;;;;;5006907;28;45459;-61
2023/04/14 08:09:44;;;;;;;1.63;0.70;;;22.20;46.60;;;;;;5010674;28;45699;-60
2023/04/14 08:12:10;;;;;;;0.80;0.60;;;22.20;46.60;;;;;;5006169;28;44682;-59
2023/04/14 08:14:35;;;;;;;0.77;0.63;;;22.20;46.50;;;;;;5016329;28;45503;-60
2023/04/14 08:17:01;;;;;;;0.60;0.50;;;22.30;46.50;;;;;;5003263;28;45587;-61
2023/04/14 08:19:26;;;;;;;0.93;0.57;;;22.30;46.50;;;;;;5011321;28;45611;-60
2023/04/14 08:21:52;;;;;;;0.50;0.50;;;22.40;46.40;;;;;;5003044;28;45479;-60
2023/04/14 08:24:17;;;;;;;0.63;0.63;;;22.40;46.30;;;;;;5012225;28;45258;-61
2023/04/14 08:26:43;;;;;;;4.10;0.60;;;22.50;46.30;;;;;;5006618;28;45366;-61
2023/04/14 08:29:08;;;;;;;0.95;0.70;;;22.60;46.30;;;;;;5015164;28;45654;-62
2023/04/14 08:31:34;;;;;;;0.60;0.47;;;22.60;46.20;;;;;;4995249;28;45198;-61
2023/04/14 08:34:00;;;;;;;1.33;0.50;;;22.70;46.20;;;;;;5009367;28;45847;-60
2023/04/14 08:36:26;;;;;;;3.53;0.95;;;22.80;46.20;;;;;;5007538;28;45675;-60
2023/04/14 08:38:52;;;;;;;1.27;0.45;;;22.80;46.10;;;;;;5011606;28;45657;-60
2023/04/14 08:41:18;;;;;;;0.88;0.60;;;22.80;46.00;;;;;;5007012;28;45626;-58
2023/04/14 08:43:44;;;;;;;1.90;0.60;;;22.90;46.00;;;;;;5012236;28;47149;-61
2023/04/14 08:46:10;;;;;;;1.05;0.60;;;22.90;45.90;;;;;;5003548;28;45585;-59
2023/04/14 08:48:37;;;;;;;0.60;0.60;;;22.90;45.90;;;;;;5011204;28;45562;-59
2023/04/14 08:51:08;;;;;;;2.53;0.70;;;22.90;46.00;;;;;;5006605;28;45189;-61
2023/04/14 08:53:34;;;;;;;1.15;0.77;;;22.90;45.90;;;;;;5011018;28;45861;-61
2023/04/14 08:56:01;;;;;;;0.70;0.70;;;23.00;46.00;;;;;;5006983;28;45488;-58
2023/04/14 08:58:27;;;;;;;0.73;0.70;;;23.00;46.00;;;;;;4999194;28;45489;-59
2023/04/14 09:00:53;;;;;;;0.50;0.50;;;23.10;45.90;;;;;;4997832;28;45885;-59
2023/04/14 09:03:18;;;;;;;1.48;0.60;;;23.10;45.80;;;;;;5008022;28;45886;-58
2023/04/14 09:05:44;;;;;;;0.70;0.55;;;23.20;45.80;;;;;;4992487;28;44943;-59
2023/04/14 09:08:10;;;;;;;1.17;0.60;;;23.20;45.70;;;;;;5011292;28;45377;-57
2023/04/14 09:10:35;;;;;;;1.98;0.60;;;23.30;45.80;;;;;;5008877;28;45491;-58
2023/04/14 09:13:02;;;;;;;0.77;0.65;;;23.30;45.70;;;;;;4992234;28;47040;-59
2023/04/14 09:15:28;;;;;;;0.38;0.38;;;23.40;45.60;;;;;;4990234;28;45276;-59
2023/04/14 09:17:54;;;;;;;0.90;0.60;;;23.40;45.60;;;;;;4979194;28;45432;-59
2023/04/14 09:20:19;;;;;;;1.23;0.60;;;23.40;45.60;;;;;;5007175;28;44801;-61
2023/04/14 09:22:45;;;;;;;0.73;0.60;;;23.30;45.70;;;;;;5008678;28;47036;-59
2023/04/14 09:25:11;;;;;;;0.93;0.50;;;23.30;45.80;;;;;;5007119;28;45614;-60
2023/04/14 09:27:37;;;;;;;3.03;0.60;;;23.40;45.80;;;;;;4977326;28;45033;-60
2023/04/14 09:30:22;;;;;;;1.13;0.50;;;23.40;45.70;;;;;;5011513;28;45388;-63
2023/04/14 09:32:55;;;;;;;1.40;0.80;;;23.50;45.30;;;;;;4910894;28;45615;-60
2023/04/14 09:35:20;;;;;;;2.15;1.10;;;23.50;45.50;;;;;;4936403;28;45203;-60
2023/04/14 09:37:47;;;;;;;0.20;0.20;;;23.60;45.50;;;;;;4944849;28;45713;-59
2023/04/14 09:40:29;;;;;;;0.50;0.50;;;23.60;45.50;;;;;;4943967;28;45259;-59
2023/04/14 09:42:55;;;;;;;0.63;0.50;;;23.70;45.10;;;;;;4934477;28;45618;-60
2023/04/14 09:45:21;;;;;;;0.40;0.40;;;23.70;45.50;;;;;;4939602;28;45546;-60
2023/04/14 09:47:47;;;;;;;0.40;0.30;;;23.70;45.40;;;;;;4932003;28;44778;-60
2023/04/14 09:50:13;;;;;;;0.60;0.50;;;23.60;45.50;;;;;;4944318;28;45656;-60
2023/04/14 09:52:46;;;;;;;1.05;0.60;;;23.60;45.60;;;;;;4933810;28;46894;-59
2023/04/14 09:55:15;;;;;;;1.10;0.50;;;23.60;45.50;;;;;;4940479;28;44932;-62
2023/04/14 09:57:46;;;;;;;0.35;0.35;;;23.70;45.60;;;;;;4931834;28;45002;-59
2023/04/14 10:00:14;;;;;;;0.63;0.50;;;23.70;45.40;;;;;;4940783;28;44809;-59
2023/04/14 10:02:54;;;;;;;0.77;0.60;;;23.70;45.40;;;;;;4921009;28;45538;-59
2023/04/14 10:05:24;;;;;;;2.50;0.70;;;23.80;45.20;;;;;;4925195;28;47066;-61
2023/04/14 10:07:50;;;;;;;1.00;0.60;;;23.80;45.50;;;;;;4927213;28;45446;-61
2023/04/14 10:10:16;;;;;;;1.13;0.40;;;23.80;45.40;;;;;;4926244;28;45181;-60
2023/04/14 10:12:43;;;;;;;1.50;0.60;;;23.70;45.50;;;;;;4930533;28;45729;-60
2023/04/14 10:15:10;;;;;;;0.55;0.40;;;23.60;45.50;;;;;;4916916;28;45236;-62
2023/04/14 10:17:36;;;;;;;1.02;0.55;;;23.60;45.70;;;;;;4923752;28;45075;-61
2023/04/14 10:20:04;;;;;;;0.73;0.50;;;23.50;45.80;;;;;;4942960;28;45261;-61
2023/04/14 10:22:29;;;;;;;0.45;0.45;;;23.40;45.90;;;;;;4909832;28;45129;-61
2023/04/14 10:24:56;;;;;;;1.08;0.50;;;23.40;46.00;;;;;;4942609;28;45553;-60
2023/04/14 10:27:22;;;;;;;0.80;0.45;;;23.20;46.10;;;;;;4924013;28;45627;-60
2023/04/14 10:29:48;;;;;;;1.33;0.63;;;23.20;46.20;;;;;;4941940;28;45106;-59
2023/04/14 10:32:15;;;;;;;0.77;0.50;;;23.20;46.30;;;;;;4934920;28;45269;-60
2023/04/14 10:35:10;;;;;;;0.93;0.50;;;23.10;46.40;;;;;;4945646;28;44929;-60
2023/04/14 10:37:36;;;;;;;0.82;0.40;;;23.00;46.30;;;;;;4932152;28;45517;-65
2023/04/14 10:40:04;;;;;;;0.70;0.50;;;23.00;46.60;;;;;;4927259;28;45783;-60
2023/04/14 10:42:50;;;;;;;1.27;0.73;;;22.90;46.60;;;;;;4948561;28;45161;-60
2023/04/14 10:45:16;;;;;;;0.55;0.50;;;22.90;46.60;;;;;;4940998;28;45976;-60
2023/04/14 10:47:41;;;;;;;1.33;0.75;;;22.80;46.80;;;;;;4941093;28;45206;-60
2023/04/14 10:50:16;;;;;;;1.50;0.60;;;22.80;46.90;;;;;;4924618;28;45517;-62
2023/04/14 10:52:55;;;;;;;0.77;0.63;;;22.70;46.80;;;;;;4948136;28;46008;-61
2023/04/14 10:55:22;;;;;;;4.32;0.60;;;22.70;46.90;;;;;;4944328;28;45186;-60
2023/04/14 10:57:48;;;;;;;0.30;0.30;;;22.60;46.90;;;;;;4929425;28;44980;-62
2023/04/14 11:00:21;;;;;;;0.30;0.30;;;22.60;47.00;;;;;;4922404;28;45257;-61
2023/04/14 11:02:53;;;;;;;0.70;0.47;;;22.60;47.10;;;;;;4948598;28;45083;-60
2023/04/14 11:05:19;;;;;;;0.52;0.45;;;22.50;47.10;;;;;;4944236;28;45449;-66
2023/04/14 11:07:50;;;;;;;0.70;0.60;;;22.40;47.10;;;;;;4951574;28;45989;-60
2023/04/14 11:10:16;;;;;;;0.52;0.45;;;22.40;47.20;;;;;;4950374;28;45007;-60
2023/04/14 11:12:42;;;;;;;1.63;0.60;;;22.40;47.30;;;;;;4962031;28;46191;-61
2023/04/14 11:15:08;;;;;;;0.50;0.50;;;22.40;47.30;;;;;;4936109;28;45521;-60
2023/04/14 11:17:38;;;;;;;3.33;0.50;;;22.30;47.40;;;;;;4949012;28;45701;-61
2023/04/14 11:20:22;;;;;;;0.68;0.57;;;22.30;47.40;;;;;;4931004;28;45598;-62
2023/04/14 11:22:49;;;;;;;1.10;0.60;;;22.20;47.30;;;;;;4951958;28;45161;-61
2023/04/14 11:25:18;;;;;;;0.65;0.50;;;22.20;47.50;;;;;;4949895;28;44789;-59
2023/04/14 11:27:45;;;;;;;0.40;0.40;;;22.20;47.50;;;;;;4937398;28;45574;-61
2023/04/14 11:30:18;;;;;;;0.88;0.60;;;22.10;47.50;;;;;;4932236;28;45278;-61
2023/04/14 11:32:44;;;;;;;;;;;22.10;47.50;;;;;;4949829;28;46498;-59
2023/04/14 11:35:10;;;;;;;0.32;0.30;;;22.10;47.70;;;;;;4952745;28;45238;-60
2023/04/14 11:37:36;;;;;;;0.70;0.50;;;22.00;47.70;;;;;;4956121;28;45361;-58
2023/04/14 11:40:06;;;;;;;0.68;0.60;;;22.00;47.70;;;;;;4940029;28;45328;-61
2023/04/14 11:42:32;;;;;;;0.55;0.50;;;21.90;47.60;;;;;;4948010;28;45788;-60
2023/04/14 11:44:58;;;;;;;0.95;0.60;;;21.90;47.70;;;;;;4953585;28;45364;-58
2023/04/14 11:47:23;;;;;;;0.75;0.50;;;21.90;47.70;;;;;;4944208;28;45567;-60
2023/04/14 11:49:49;;;;;;;0.65;0.60;;;21.90;47.80;;;;;;4958243;28;45350;-59
2023/04/14 11:52:16;;;;;;;0.55;0.55;;;21.80;47.80;;;;;;4934402;28;46122;-58
2023/04/14 11:54:41;;;;;;;1.90;0.70;;;21.80;47.90;;;;;;4948911;28;45368;-60
2023/04/14 11:57:11;;;;;;;0.80;0.60;;;21.80;47.90;;;;;;4948913;28;45262;-60
2023/04/14 11:59:41;;;;;;;0.88;0.40;;;21.80;48.00;;;;;;4955599;28;45626;-61
2023/04/14 12:02:07;;;;;;;0.57;0.50;;;21.70;48.00;;;;;;4944875;28;45290;-60
2023/04/14 12:04:33;;;;;;;0.98;0.60;;;21.70;48.00;;;;;;4949166;28;45296;-56
2023/04/14 12:06:59;;;;;;;0.30;0.30;;;21.70;48.00;;;;;;4938321;28;45453;-60
2023/04/14 12:09:30;;;;;;;0.40;0.40;;;21.60;48.00;;;;;;4953579;28;45282;-59
2023/04/14 12:11:56;;;;;;;0.63;0.30;;;21.60;48.10;;;;;;4950261;28;46846;-60
2023/04/14 12:14:22;;;;;;;1.50;0.52;;;21.60;48.10;;;;;;4955780;28;45670;-59
2023/04/14 12:16:47;;;;;;;0.70;0.50;;;21.60;48.10;;;;;;4948290;28;45938;-61
2023/04/14 12:19:13;;;;;;;0.50;0.40;;;21.50;48.20;;;;;;4939036;28;45265;-59
2023/04/14 12:21:38;;;;;;;0.50;0.50;;;21.50;48.20;;;;;;4952746;28;46405;-57
2023/04/14 12:24:04;;;;;;;1.13;0.50;;;21.50;48.20;;;;;;4942868;28;45062;-61
2023/04/14 12:26:30;;;;;;;0.38;0.35;;;21.50;48.20;;;;;;4933748;28;45591;-58
2023/04/14 12:28:56;;;;;;;0.90;0.50;;;21.40;48.20;;;;;;4955243;28;44642;-59
2023/04/14 12:31:31;;;;;;;0.47;0.35;;;21.40;48.20;;;;;;4921498;28;46438;-61
2023/04/14 12:34:02;;;;;;;0.40;0.40;;;21.40;48.30;;;;;;4940942;28;45527;-61
2023/04/14 12:36:27;;;;;;;0.50;0.40;;;21.40;48.30;;;;;;4944636;28;45202;-60
2023/04/14 12:38:53;;;;;;;1.15;0.50;;;21.40;48.40;;;;;;4925933;28;46062;-61
2023/04/14 12:41:22;;;;;;;0.70;0.60;;;21.30;48.40;;;;;;4943824;28;46125;-60
2023/04/14 12:43:47;;;;;;;0.80;0.60;;;21.30;48.40;;;;;;4948987;28;45324;-60
2023/04/14 12:46:21;;;;;;;1.08;0.60;;;21.30;48.40;;;;;;4926085;28;45633;-60
2023/04/14 12:48:47;;;;;;;0.73;0.40;;;21.30;48.50;;;;;;4953999;28;44766;-60
2023/04/14 12:51:14;;;;;;;0.73;0.40;;;21.30;48.50;;;;;;4946147;28;45332;-60
2023/04/14 12:53:41;;;;;;;3.67;0.68;;;21.20;48.40;;;;;;4928497;28;44836;-61
2023/04/14 12:56:11;;;;;;;0.55;0.40;;;21.20;48.50;;;;;;4933815;28;45332;-62
2023/04/14 12:58:38;;;;;;;0.50;0.40;;;21.20;48.50;;;;;;4953390;28;44682;-62
2023/04/14 13:01:05;;;;;;;0.55;0.50;;;21.10;48.50;;;;;;4926135;28;45950;-61
2023/04/14 13:03:49;;;;;;;0.30;0.30;;;21.10;48.50;;;;;;4953771;28;45103;-60
2023/04/14 13:06:15;;;;;;;0.40;0.40;;;21.10;48.60;;;;;;4944969;28;45192;-61
2023/04/14 13:08:45;;;;;;;0.65;0.45;;;21.10;48.60;;;;;;4937757;28;45030;-61
2023/04/14 13:11:14;;;;;;;0.60;0.50;;;21.10;48.70;;;;;;4929584;28;45955;-60
2023/04/14 13:13:40;;;;;;;1.45;0.47;;;21.10;48.70;;;;;;4947961;28;44982;-60
2023/04/14 13:16:06;;;;;;;2.45;0.70;;;21.00;48.70;;;;;;4925725;28;45422;-61
2023/04/14 13:18:32;;;;;;;1.40;0.50;;;21.00;48.70;;;;;;4935883;28;45278;-61
2023/04/14 13:20:58;;;;;;;1.40;0.60;;;21.00;48.70;;;;;;4944225;28;45203;-61
2023/04/14 13:23:24;;;;;;;0.40;0.40;;;21.00;48.80;;;;;;4949555;28;45539;-61
2023/04/14 13:25:49;;;;;;;1.40;0.63;;;21.00;48.80;;;;;;4928402;28;45344;-60
2023/04/14 13:28:15;;;;;;;1.55;0.50;;;20.90;48.80;;;;;;4951652;28;44810;-60
2023/04/14 13:30:41;;;;;;;0.93;0.60;;;20.90;48.80;;;;;;4945346;28;46522;-61
2023/04/14 13:33:07;;;;;;;0.55;0.55;;;20.90;48.90;;;;;;4955237;28;45354;-61
2023/04/14 13:35:33;;;;;;;0.85;0.73;;;20.90;48.90;;;;;;4946929;28;45185;-61
2023/04/14 13:37:59;;;;;;;0.75;0.50;;;20.90;48.90;;;;;;4954938;28;45404;-61
2023/04/14 13:40:25;;;;;;;0.55;0.50;;;20.80;48.80;;;;;;4948946;28;46182;-61
2023/04/14 13:42:51;;;;;;;0.40;0.40;;;20.80;48.90;;;;;;4952541;28;45601;-59
2023/04/14 13:45:16;;;;;;;0.80;0.47;;;20.80;48.90;;;;;;4946267;28;45451;-61
2023/04/14 13:47:46;;;;;;;0.40;0.30;;;20.80;48.90;;;;;;4946908;28;46815;-61
2023/04/14 13:50:11;;;;;;;0.75;0.60;;;20.80;49.00;;;;;;4943162;28;46197;-59
2023/04/14 13:52:37;;;;;;;0.52;0.50;;;20.80;49.00;;;;;;4946571;28;45497;-59
2023/04/14 13:55:08;;;;;;;1.35;0.55;;;20.70;49.00;;;;;;4952459;28;45671;-66
2023/04/14 13:57:34;;;;;;;0.75;0.45;;;20.70;49.00;;;;;;4916925;28;44771;-61
2023/04/14 14:00:00;;;;;;;0.45;0.40;;;20.70;49.10;;;;;;4950463;28;45925;-61
2023/04/14 14:02:25;;;;;;;0.82;0.40;;;20.70;49.00;;;;;;4939578;28;45187;-60
2023/04/14 14:04:51;;;;;;;0.50;0.50;;;20.70;49.00;;;;;;4948635;28;45824;-59
2023/04/14 14:07:16;;;;;;;0.68;0.50;;;20.70;49.00;;;;;;4942436;28;45505;-59
2023/04/14 14:09:44;;;;;;;0.82;0.60;;;20.60;49.60;;;;;;4948926;28;46175;-59
2023/04/14 14:12:10;;;;;;;0.85;0.50;;;20.70;49.10;;;;;;4914344;28;45139;-61
2023/04/14 14:14:36;;;;;;;0.93;0.43;;;20.60;49.00;;;;;;4947995;28;45250;-60
2023/04/14 14:17:03;;;;;;;0.40;0.40;;;20.60;49.10;;;;;;4928395;28;45718;-60
2023/04/14 14:19:28;;;;;;;0.50;0.40;;;20.60;49.00;;;;;;4953219;28;46917;-59
2023/04/14 14:21:54;;;;;;;0.90;0.50;;;20.60;49.00;;;;;;4949475;28;44806;-60
2023/04/14 14:24:19;;;;;;;1.05;0.50;;;20.60;49.00;;;;;;4950887;28;45364;-60
2023/04/14 14:26:45;;;;;;;0.88;0.50;;;20.60;49.00;;;;;;4949996;28;45286;-60
2023/04/14 14:29:11;;;;;;;0.93;0.70;;;20.60;49.00;;;;;;4953936;28;44941;-60
2023/04/14 14:31:36;;;;;;;0.68;0.60;;;20.60;49.00;;;;;;4945228;28;45415;-61
2023/04/14 14:34:02;;;;;;;0.55;0.40;;;20.60;49.00;;;;;;4957888;28;46780;-60
2023/04/14 14:36:28;;;;;;;0.50;0.50;;;20.50;49.00;;;;;;4949239;28;45232;-60
2023/04/14 14:38:54;;;;;;;0.30;0.30;;;20.50;49.10;;;;;;4955836;28;46161;-59
2023/04/14 14:41:20;;;;;;;0.93;0.50;;;20.50;49.10;;;;;;4986327;22;45086;-61
2023/04/14 14:43:45;;;;;;;0.70;0.50;;;20.50;49.10;;;;;;4985767;28;45488;-61
2023/04/14 14:46:11;;;;;;;1.88;0.55;;;20.50;49.10;;;;;;4984629;28;45343;-60
2023/04/14 14:48:36;;;;;;;0.75;0.38;;;20.50;49.80;;;;;;4991378;28;46737;-59
2023/04/14 14:51:02;;;;;;;0.40;0.40;;;20.40;49.10;;;;;;4991032;28;45562;-60
2023/04/14 14:53:28;;;;;;;1.17;0.45;;;20.40;49.20;;;;;;4993605;28;46074;-61
2023/04/14 14:55:53;;;;;;;0.70;0.50;;;20.40;49.20;;;;;;4987449;28;45737;-60
2023/04/14 14:58:19;;;;;;;1.02;0.40;;;20.40;49.20;;;;;;4977727;28;46317;-61
2023/04/14 15:00:46;;;;;;;0.60;0.60;;;20.40;49.20;;;;;;4984970;28;44681;-60
2023/04/14 15:03:12;;;;;;;0.55;0.40;;;20.40;49.30;;;;;;4987318;28;45035;-60
2023/04/14 15:05:37;;;;;;;0.35;0.35;;;20.30;49.30;;;;;;4981951;28;46864;-60
2023/04/14 15:08:03;;;;;;;0.82;0.50;;;20.30;49.30;;;;;;4994360;28;46849;-60
2023/04/14 15:10:28;;;;;;;0.47;0.45;;;20.30;49.30;;;;;;4970545;28;45742;-59
2023/04/14 15:12:54;;;;;;;0.70;0.50;;;20.30;49.30;;;;;;4993977;28;46155;-60
2023/04/14 15:15:20;;;;;;;2.15;0.60;;;20.30;49.30;;;;;;4983733;28;44688;-60
2023/04/14 15:17:45;;;;;;;0.40;0.30;;;20.30;50.00;;;;;;4954253;28;45125;-60
2023/04/14 15:20:11;;;;;;;0.50;0.32;;;20.30;49.40;;;;;;4989739;28;44958;-61
2023/04/14 15:22:37;;;;;;;0.50;0.40;;;20.20;49.30;;;;;;4983984;28;46097;-60
2023/04/14 15:25:04;;;;;;;0.88;0.57;;;20.20;49.30;;;;;;4981889;28;45629;-59
2023/04/14 15:27:29;;;;;;;0.47;0.38;;;20.20;49.40;;;;;;4960526;28;45239;-61
2023/04/14 15:29:55;;;;;;;2.10;0.50;;;20.20;49.40;;;;;;4995244;28;45417;-59
2023/04/14 15:32:24;;;;;;;0.35;0.35;;;20.20;49.40;;;;;;4977741;28;45494;-60
2023/04/14 15:34:50;;;;;;;0.52;0.52;;;20.20;49.50;;;;;;4987490;28;45257;-59
2023/04/14 15:37:16;;;;;;;0.80;0.50;;;20.20;49.50;;;;;;4971564;28;46885;-60
2023/04/14 15:39:41;;;;;;;0.40;0.40;;;20.10;49.50;;;;;;4986281;28;45642;-60
2023/04/14 15:42:07;;;;;;;0.43;0.40;;;20.10;49.50;;;;;;4985478;28;45524;-60
2023/04/14 15:44:33;;;;;;;0.63;0.57;;;20.10;49.50;;;;;;4988978;28;44781;-60
2023/04/14 15:47:00;;;;;;;0.65;0.50;;;20.10;49.50;;;;;;4983398;28;45997;-60